Time;durP1;ratioP1;P1;durP2;ratioP2;P2;SDS_P1;SDS_P2;PMS_P1;PMS_P2;Temp;Humidity;BMP_temperature;BMP_pressure;BME280_temperature;BME280_humidity;BME280_pressure;Samples;Min_cycle;Max_cycle;Signal;HPM_P1;HPM_P2
2021/12/12 00:00:20;;;;;;;;;;;;;;;5.21;75.92;100286.66;5051482;28;19920;-62
2021/12/12 00:02:57;;;;;;;;;;;;;;;5.24;75.89;100287.50;5052984;28;19928;-62
2021/12/12 00:05:28;;;;;;;;;;;;;;;5.26;75.87;100283.94;5052818;28;19920;-63
2021/12/12 00:07:55;;;;;;;;;;;;;;;5.27;75.87;100280.44;5051903;28;19956;-62
2021/12/12 00:10:23;;;;;;;;;;;;;;;5.28;75.58;100282.16;5051434;28;19927;-64
2021/12/12 00:12:52;;;;;;;;;;;;;;;5.29;75.60;100289.09;5053117;28;19924;-63
2021/12/12 00:15:19;;;;;;;;;;;;;;;5.29;75.50;100286.50;5052621;28;19921;-60
2021/12/12 00:17:46;;;;;;;;;;;;;;;5.28;75.41;100276.94;5052908;28;19932;-63
2021/12/12 00:20:16;;;;;;;;;;;;;;;5.28;75.34;100279.56;5051371;28;19986;-62
2021/12/12 00:22:43;;;;;;;;;;;;;;;5.27;75.39;100272.59;5051393;28;19924;-62
2021/12/12 00:25:10;;;;;;;;;;;;;;;5.28;75.24;100274.34;5052830;28;19924;-61
2021/12/12 00:27:37;;;;;;;;;;;;;;;5.26;75.30;100276.13;5052728;28;19920;-61
2021/12/12 00:30:08;;;;;;;;;;;;;;;5.28;75.38;100265.63;5052326;28;19925;-61
2021/12/12 00:32:36;;;;;;;;;;;;;;;5.28;75.38;100282.16;5051311;28;20269;-61
2021/12/12 00:35:07;;;;;;;;;;;;;;;5.27;75.30;100267.38;5052658;28;19921;-61
2021/12/12 00:37:34;;;;;;;;;;;;;;;5.27;75.33;100277.00;5052696;28;19932;-61
2021/12/12 00:40:05;;;;;;;;;;;;;;;5.26;75.03;100264.81;5052418;28;19921;-62
2021/12/12 00:42:33;;;;;;;;;;;;;;;5.25;75.28;100261.38;5052276;28;19927;-63
2021/12/12 00:45:03;;;;;;;;;;;;;;;5.26;75.23;100252.63;5052213;28;20281;-61
2021/12/12 00:47:29;;;;;;;;;;;;;;;5.25;75.10;100257.88;5052482;28;19935;-61
2021/12/12 00:50:07;;;;;;;;;;;;;;;5.25;75.27;100273.53;5052066;28;20027;-62
2021/12/12 00:52:34;;;;;;;;;;;;;;;5.24;75.15;100264.00;5052119;28;20374;-61
2021/12/12 00:55:01;;;;;;;;;;;;;;;5.25;75.38;100263.97;5051875;28;19946;-62
2021/12/12 00:57:29;;;;;;;;;;;;;;;5.23;75.19;100260.53;5052448;28;19948;-61
2021/12/12 00:59:56;;;;;;;;;;;;;;;5.22;74.98;100258.81;5052136;28;20011;-61
2021/12/12 01:02:24;;;;;;;;;;;;;;;5.22;75.00;100254.47;5052072;28;20191;-63
2021/12/12 01:04:54;;;;;;;;;;;;;;;5.21;74.88;100257.97;5051177;28;19920;-62
2021/12/12 01:07:23;;;;;;;;;;;;;;;5.20;74.95;100258.03;5051813;28;19951;-62
2021/12/12 01:09:52;;;;;;;;;;;;;;;5.21;75.14;100257.13;5050734;28;19932;-61
2021/12/12 01:12:21;;;;;;;;;;;;;;;5.20;75.16;100258.84;5051717;28;19921;-63
2021/12/12 01:14:51;;;;;;;;;;;;;;;5.18;75.04;100260.66;5051686;28;20338;-63
2021/12/12 01:17:20;;;;;;;;;;;;;;;5.21;75.21;100254.50;5051331;28;19928;-62
2021/12/12 01:19:50;;;;;;;;;;;;;;;5.21;75.15;100259.72;5050617;28;19928;-61
2021/12/12 01:22:25;;;;;;;;;;;;;;;5.22;75.10;100254.47;5050978;28;19925;-61
2021/12/12 01:24:53;;;;;;;;;;;;;;;5.22;75.09;100251.00;5052244;28;19927;-61
2021/12/12 01:27:20;;;;;;;;;;;;;;;5.22;75.04;100253.59;5051743;28;19928;-62
2021/12/12 01:29:49;;;;;;;;;;;;;;;5.22;75.14;100243.16;5052143;28;19920;-64
2021/12/12 01:32:29;;;;;;;;;;;;;;;5.22;75.09;100249.25;5050445;28;19928;-62
2021/12/12 01:34:58;;;;;;;;;;;;;;;5.21;75.05;100241.47;5050723;28;19921;-62
2021/12/12 01:40:00;;;;;;;;;;;;;;;5.21;74.89;100247.50;5051332;28;19920;-62
2021/12/12 01:42:33;;;;;;;;;;;;;;;5.21;74.90;100251.91;5050545;28;19970;-61
2021/12/12 01:45:19;;;;;;;;;;;;;;;5.20;74.87;100243.19;5050091;28;19931;-62
2021/12/12 01:47:48;;;;;;;;;;;;;;;5.21;75.00;100252.75;5051186;28;19924;-64
2021/12/12 01:50:17;;;;;;;;;;;;;;;5.22;75.11;100261.44;5050056;28;19924;-61
2021/12/12 01:52:45;;;;;;;;;;;;;;;5.23;75.13;100260.53;5049932;28;19931;-63
2021/12/12 01:55:12;;;;;;;;;;;;;;;5.21;75.09;100267.56;5049911;28;19946;-63
2021/12/12 01:57:39;;;;;;;;;;;;;;;5.25;75.10;100265.72;5051571;28;19920;-62
2021/12/12 02:00:11;;;;;;;;;;;;;;;5.26;75.14;100260.47;5051019;28;19920;-62
2021/12/12 02:02:38;;;;;;;;;;;;;;;5.26;74.98;100265.69;5051191;28;19928;-62
2021/12/12 02:05:08;;;;;;;;;;;;;;;5.28;74.97;100263.91;5053641;28;19924;-61
2021/12/12 02:07:36;;;;;;;;;;;;;;;5.28;74.81;100253.47;5057654;28;19924;-61
2021/12/12 02:10:06;;;;;;;;;;;;;;;5.29;74.87;100263.00;5058110;28;19987;-61
2021/12/12 02:12:33;;;;;;;;;;;;;;;5.28;74.83;100261.28;5057089;28;19932;-62
2021/12/12 02:15:00;;;;;;;;;;;;;;;5.30;74.74;100256.00;5057820;28;19936;-61
2021/12/12 02:17:33;;;;;;;;;;;;;;;5.30;74.60;100256.88;5058085;28;19932;-62
2021/12/12 02:20:12;;;;;;;;;;;;;;;5.31;74.74;100252.50;5056435;28;20020;-62
2021/12/12 02:36:17;;;;;;;;;;;;;;;5.29;74.42;100234.28;5057103;28;19925;-62
2021/12/12 02:38:45;;;;;;;;;;;;;;;5.28;74.11;100245.63;5056019;28;20428;-61
2021/12/12 02:41:13;;;;;;;;;;;;;;;5.29;74.35;100230.81;5056908;28;19921;-61
2021/12/12 02:43:45;;;;;;;;;;;;;;;5.30;74.50;100235.97;5057353;28;19936;-61
2021/12/12 02:46:16;;;;;;;;;;;;;;;5.29;74.43;100234.28;5055963;28;20015;-61
2021/12/12 02:48:44;;;;;;;;;;;;;;;5.27;74.09;100249.13;5055809;28;19921;-64
2021/12/12 02:51:13;;;;;;;;;;;;;;;5.28;74.06;100240.41;5055924;28;19920;-62
2021/12/12 02:53:42;;;;;;;;;;;;;;;5.30;74.23;100237.72;5057335;28;19928;-61
2021/12/12 02:56:11;;;;;;;;;;;;;;;5.29;74.23;100229.06;5057113;28;19953;-62
2021/12/12 02:58:38;;;;;;;;;;;;;;;5.30;74.46;100238.59;5055985;28;19920;-62
2021/12/12 03:01:18;;;;;;;;;;;;;;;5.28;74.25;100235.19;5055738;28;19921;-61
2021/12/12 03:03:46;;;;;;;;;;;;;;;5.29;74.05;100244.72;5057348;28;19929;-62
2021/12/12 03:06:15;;;;;;;;;;;;;;;5.29;74.14;100238.63;5057168;28;19921;-61
2021/12/12 03:08:43;;;;;;;;;;;;;;;5.30;74.24;100233.38;5057093;28;19921;-61
2021/12/12 03:11:10;;;;;;;;;;;;;;;5.29;73.86;100234.28;5057058;28;20011;-61
2021/12/12 03:13:38;;;;;;;;;;;;;;;5.29;73.86;100231.66;5057192;28;19921;-61
2021/12/12 03:16:07;;;;;;;;;;;;;;;5.28;73.89;100232.56;5054816;28;20287;-62
2021/12/12 03:18:39;;;;;;;;;;;;;;;5.29;74.01;100231.66;5053622;28;19921;-63
2021/12/12 03:21:15;;;;;;;;;;;;;;;5.29;73.97;100239.50;5052339;28;19968;-61
2021/12/12 03:23:44;;;;;;;;;;;;;;;5.31;73.79;100235.06;5053796;28;19928;-62
2021/12/12 03:26:12;;;;;;;;;;;;;;;5.30;73.97;100232.50;5053545;28;19924;-61
2021/12/12 03:28:39;;;;;;;;;;;;;;;5.31;73.82;100237.69;5053829;28;19925;-61
2021/12/12 03:31:08;;;;;;;;;;;;;;;5.30;73.70;100220.31;5053542;28;19925;-62
2021/12/12 03:33:35;;;;;;;;;;;;;;;5.31;73.84;100216.81;5053694;28;20019;-60
2021/12/12 03:36:04;;;;;;;;;;;;;;;5.31;73.66;100222.03;5054128;28;19964;-63
2021/12/12 03:38:31;;;;;;;;;;;;;;;5.29;73.81;100221.22;5053809;28;19925;-61
2021/12/12 03:41:02;;;;;;;;;;;;;;;5.29;73.83;100212.53;5053993;28;19990;-61
2021/12/12 03:43:28;;;;;;;;;;;;;;;5.29;73.96;100225.59;5052365;28;19928;-63
2021/12/12 03:45:56;;;;;;;;;;;;;;;5.28;73.90;100229.97;5053725;28;19921;-61
2021/12/12 03:48:28;;;;;;;;;;;;;;;5.26;73.95;100225.66;5053306;28;19925;-60
2021/12/12 03:50:55;;;;;;;;;;;;;;;5.27;74.15;100225.63;5053619;28;19962;-63
2021/12/12 03:53:23;;;;;;;;;;;;;;;5.25;73.86;100222.22;5053275;28;19978;-60
2021/12/12 03:55:50;;;;;;;;;;;;;;;5.25;73.97;100218.72;5053224;28;19978;-61
2021/12/12 03:58:17;;;;;;;;;;;;;;;5.24;74.15;100209.19;5053484;28;19921;-61
2021/12/12 04:00:48;;;;;;;;;;;;;;;5.25;74.25;100229.16;5052994;28;19931;-61
2021/12/12 04:03:15;;;;;;;;;;;;;;;5.22;74.16;100223.16;5052974;28;19927;-62
2021/12/12 04:05:49;;;;;;;;;;;;;;;5.22;74.26;100217.06;5052652;28;19920;-60
2021/12/12 04:08:16;;;;;;;;;;;;;;;5.21;74.36;100216.19;5053170;28;19928;-61
2021/12/12 04:10:43;;;;;;;;;;;;;;;5.20;74.41;100211.88;5053013;28;19920;-60
2021/12/12 04:13:10;;;;;;;;;;;;;;;5.20;74.22;100205.81;5051472;28;19921;-60
2021/12/12 04:15:37;;;;;;;;;;;;;;;5.19;74.53;100202.34;5052898;28;20504;-60
2021/12/12 04:18:04;;;;;;;;;;;;;;;5.18;74.44;100199.78;5052898;28;19936;-61
2021/12/12 04:20:32;;;;;;;;;;;;;;;5.16;74.58;100212.88;5052529;28;19924;-61
2021/12/12 04:22:59;;;;;;;;;;;;;;;5.14;74.78;100208.59;5051486;28;19990;-64
2021/12/12 04:25:28;;;;;;;;;;;;;;;5.15;74.91;100203.34;5053136;28;19921;-61
2021/12/12 04:27:54;;;;;;;;;;;;;;;5.15;74.92;100200.72;5052228;28;19925;-62
2021/12/12 04:30:24;;;;;;;;;;;;;;;5.14;74.68;100208.59;5052685;28;19924;-62
2021/12/12 04:32:51;;;;;;;;;;;;;;;5.16;74.98;100201.59;5084909;28;19928;-62
2021/12/12 04:35:20;;;;;;;;;;;;;;;5.16;75.06;100197.19;5052503;28;19927;-61
2021/12/12 04:37:47;;;;;;;;;;;;;;;5.17;75.14;100198.06;5052191;28;20369;-61
2021/12/12 04:40:16;;;;;;;;;;;;;;;5.17;75.14;100198.94;5052508;28;19921;-61
2021/12/12 04:42:43;;;;;;;;;;;;;;;5.18;74.99;100200.66;5052245;28;20431;-61
2021/12/12 04:45:29;;;;;;;;;;;;;;;5.18;75.17;100212.81;5052197;28;19932;-62
2021/12/12 04:50:47;;;;;;;;;;;;;;;5.20;75.23;100222.31;5051825;28;19929;-62
2021/12/12 04:53:16;;;;;;;;;;;;;;;5.22;75.04;100193.56;5052052;28;19942;-63
2021/12/12 04:55:43;;;;;;;;;;;;;;;5.24;75.25;100188.31;5051800;28;20317;-61
2021/12/12 04:58:23;;;;;;;;;;;;;;;5.25;75.17;100190.03;5052167;28;19921;-61
2021/12/12 05:00:56;;;;;;;;;;;;;;;5.24;75.13;100189.19;5052012;28;19920;-61
2021/12/12 05:03:23;;;;;;;;;;;;;;;5.28;75.27;100177.75;5052190;28;20327;-62
2021/12/12 05:05:53;;;;;;;;;;;;;;;5.30;75.05;100185.53;5051719;28;20277;-61
2021/12/12 05:08:33;;;;;;;;;;;;;;;5.31;75.01;100184.66;5050752;28;19974;-62
2021/12/12 05:11:11;;;;;;;;;;;;;;;5.29;74.73;100182.06;5051516;28;19920;-61
2021/12/12 05:13:37;;;;;;;;;;;;;;;5.31;74.59;100177.66;5051751;28;19925;-62
2021/12/12 05:16:09;;;;;;;;;;;;;;;5.33;74.78;100169.78;5052284;28;19920;-61
2021/12/12 05:18:47;;;;;;;;;;;;;;;5.32;74.56;100155.91;5052162;28;19955;-61
2021/12/12 05:21:16;;;;;;;;;;;;;;;5.30;74.52;100162.03;5050125;28;19928;-63
2021/12/12 05:23:45;;;;;;;;;;;;;;;5.30;74.49;100160.28;5051746;28;19924;-62
2021/12/12 05:26:32;;;;;;;;;;;;;;;5.33;74.58;100155.00;5050364;28;19924;-61
2021/12/12 05:29:03;;;;;;;;;;;;;;;5.34;74.77;100148.84;5050354;28;20373;-62
2021/12/12 05:31:31;;;;;;;;;;;;;;;5.34;74.40;100138.41;5050356;28;20288;-61
2021/12/12 05:33:58;;;;;;;;;;;;;;;5.37;74.43;100139.22;5052005;28;19925;-61
2021/12/12 05:36:27;;;;;;;;;;;;;;;5.35;74.50;100145.34;5050411;28;19921;-62
2021/12/12 05:38:58;;;;;;;;;;;;;;;5.35;74.54;100144.50;5050178;28;19924;-61
2021/12/12 05:41:28;;;;;;;;;;;;;;;5.37;74.63;100141.81;5050618;28;19932;-61
2021/12/12 05:43:55;;;;;;;;;;;;;;;5.35;74.42;100127.06;5050125;28;19933;-62
2021/12/12 05:46:23;;;;;;;;;;;;;;;5.36;74.49;100127.94;5051310;28;20446;-61
2021/12/12 05:48:51;;;;;;;;;;;;;;;5.35;74.41;100129.69;5051610;28;19931;-63
2021/12/12 05:51:18;;;;;;;;;;;;;;;5.33;74.59;100138.47;5051090;28;19921;-61
2021/12/12 05:53:48;;;;;;;;;;;;;;;5.34;74.71;100122.75;5051079;28;19997;-63
2021/12/12 05:56:15;;;;;;;;;;;;;;;5.35;74.84;100115.78;5050865;28;19970;-60
2021/12/12 05:58:41;;;;;;;;;;;;;;;5.34;74.94;100116.66;5049982;28;19925;-61
2021/12/12 06:01:09;;;;;;;;;;;;;;;5.34;74.94;100108.84;5050923;28;19921;-61
2021/12/12 06:03:38;;;;;;;;;;;;;;;5.33;74.90;100105.38;5049941;28;19943;-61
2021/12/12 06:06:07;;;;;;;;;;;;;;;5.33;75.20;100115.81;5050963;28;19925;-62
2021/12/12 06:08:33;;;;;;;;;;;;;;;5.34;75.07;100111.44;5050939;28;20281;-61
2021/12/12 06:11:01;;;;;;;;;;;;;;;5.35;75.21;100114.00;5051031;28;19932;-62
2021/12/12 06:13:28;;;;;;;;;;;;;;;5.37;75.16;100113.97;5051000;28;20297;-62
2021/12/12 06:15:56;;;;;;;;;;;;;;;5.38;75.52;100118.28;5049971;28;19986;-61
2021/12/12 06:18:25;;;;;;;;;;;;;;;5.38;75.10;100107.00;5049583;28;19921;-61
2021/12/12 06:20:52;;;;;;;;;;;;;;;5.39;75.61;100111.31;5051142;28;19971;-63
2021/12/12 06:23:19;;;;;;;;;;;;;;;5.40;75.40;100124.34;5051035;28;19947;-62
2021/12/12 06:25:46;;;;;;;;;;;;;;;5.41;75.47;100114.72;5050733;28;19970;-61
2021/12/12 06:28:15;;;;;;;;;;;;;;;5.44;75.37;100119.88;5050656;28;19929;-62
2021/12/12 06:30:41;;;;;;;;;;;;;;;5.44;75.66;100133.78;5050750;28;19932;-62
2021/12/12 06:33:09;;;;;;;;;;;;;;;5.46;75.52;100126.75;5050546;28;19921;-61
2021/12/12 06:35:36;;;;;;;;;;;;;;;5.45;75.88;100119.81;5050565;28;20396;-63
2021/12/12 06:38:05;;;;;;;;;;;;;;;5.46;75.66;100125.91;5050606;28;20361;-61
2021/12/12 06:40:32;;;;;;;;;;;;;;;5.50;75.70;100137.13;5049208;28;19928;-63
2021/12/12 06:43:01;;;;;;;;;;;;;;;5.50;75.64;100130.16;5049315;28;19921;-61
2021/12/12 06:45:28;;;;;;;;;;;;;;;5.53;75.90;100127.41;5050065;28;19956;-68
2021/12/12 06:47:55;;;;;;;;;;;;;;;5.54;75.64;100133.50;5050557;28;19946;-70
2021/12/12 06:50:23;;;;;;;;;;;;;;;5.58;75.76;100129.91;5050360;28;19932;-61
2021/12/12 06:52:50;;;;;;;;;;;;;;;5.56;75.85;100132.56;5052812;28;19920;-61
2021/12/12 06:55:18;;;;;;;;;;;;;;;5.58;75.70;100140.34;5054851;28;19920;-62
2021/12/12 06:57:45;;;;;;;;;;;;;;;5.60;75.75;100128.97;5052920;28;19925;-63
2021/12/12 07:00:14;;;;;;;;;;;;;;;5.61;75.49;100129.81;5053884;28;19929;-61
2021/12/12 07:02:42;;;;;;;;;;;;;;;5.60;75.77;100123.72;5054268;28;20408;-63
2021/12/12 07:05:12;;;;;;;;;;;;;;;5.63;75.94;100121.91;5053153;28;19949;-61
2021/12/12 07:07:39;;;;;;;;;;;;;;;5.65;75.93;100141.88;5052890;28;20373;-61
2021/12/12 07:10:07;;;;;;;;;;;;;;;5.65;76.32;100139.28;5053788;28;20361;-62
2021/12/12 07:12:34;;;;;;;;;;;;;;;5.66;76.20;100134.88;5053215;28;19955;-61
2021/12/12 07:15:02;;;;;;;;;;;;;;;5.69;76.53;100134.81;5052780;28;20323;-62
2021/12/12 07:17:29;;;;;;;;;;;;;;;5.71;76.56;100136.47;5054044;28;19929;-62
2021/12/12 07:19:55;;;;;;;;;;;;;;;5.73;76.42;100132.03;5054172;28;19920;-62
2021/12/12 07:22:23;;;;;;;;;;;;;;;5.77;76.64;100129.34;5054005;28;20376;-63
2021/12/12 07:24:54;;;;;;;;;;;;;;;5.80;76.82;100135.31;5054116;28;19990;-61
2021/12/12 07:27:20;;;;;;;;;;;;;;;5.84;76.66;100139.53;5053276;28;19920;-62
2021/12/12 07:29:47;;;;;;;;;;;;;;;5.86;76.79;100140.34;5052200;28;20631;-64
2021/12/12 07:32:14;;;;;;;;;;;;;;;5.89;76.95;100143.75;5053001;28;20376;-62
2021/12/12 07:34:41;;;;;;;;;;;;;;;5.90;76.88;100143.72;5053847;28;19982;-62
2021/12/12 07:37:08;;;;;;;;;;;;;;;5.92;76.93;100141.94;5053775;28;19944;-64
2021/12/12 07:39:37;;;;;;;;;;;;;;;5.95;77.08;100148.81;5053556;28;19924;-62
2021/12/12 07:42:04;;;;;;;;;;;;;;;5.96;77.09;100161.84;5053227;28;19963;-62
2021/12/12 07:44:33;;;;;;;;;;;;;;;5.99;77.03;100139.97;5052421;28;19933;-62
2021/12/12 07:47:00;;;;;;;;;;;;;;;6.03;77.16;100161.63;5052114;28;20266;-63
2021/12/12 07:49:29;;;;;;;;;;;;;;;6.03;77.23;100152.06;5052742;28;20274;-61
2021/12/12 07:51:56;;;;;;;;;;;;;;;6.07;77.21;100148.47;5052609;28;20274;-62
2021/12/12 07:54:24;;;;;;;;;;;;;;;6.08;77.41;100151.91;5053742;28;19924;-63
2021/12/12 07:56:51;;;;;;;;;;;;;;;6.09;77.31;100164.94;5052129;28;20389;-63
2021/12/12 07:59:18;;;;;;;;;;;;;;;6.13;77.55;100145.63;5052525;28;19921;-62
2021/12/12 08:01:46;;;;;;;;;;;;;;;6.15;77.21;100150.81;5053564;28;19928;-62
2021/12/12 08:04:14;;;;;;;;;;;;;;;6.20;77.32;100148.06;5052998;28;19925;-62
2021/12/12 08:06:41;;;;;;;;;;;;;;;6.22;77.34;100149.72;5053734;28;19928;-61
2021/12/12 08:09:09;;;;;;;;;;;;;;;6.24;77.40;100155.75;5052045;28;20381;-62
2021/12/12 08:11:36;;;;;;;;;;;;;;;6.25;77.36;100161.84;5051742;28;19931;-62
2021/12/12 08:14:05;;;;;;;;;;;;;;;6.27;77.30;100161.78;5053295;28;19927;-62
2021/12/12 08:16:31;;;;;;;;;;;;;;;6.29;77.35;100165.19;5051862;28;20506;-61
2021/12/12 08:18:58;;;;;;;;;;;;;;;6.29;77.24;100153.00;5052896;28;19928;-64
2021/12/12 08:21:25;;;;;;;;;;;;;;;6.30;77.32;100162.53;5051374;28;19921;-62
2021/12/12 08:23:53;;;;;;;;;;;;;;;6.36;77.40;100175.41;5053169;28;19971;-62
2021/12/12 08:26:23;;;;;;;;;;;;;;;6.37;77.35;100177.13;5051781;28;19968;-62
2021/12/12 08:28:50;;;;;;;;;;;;;;;6.38;77.61;100177.97;5052479;28;19927;-61
2021/12/12 08:31:17;;;;;;;;;;;;;;;6.41;77.70;100183.09;5052441;28;19928;-62
2021/12/12 08:33:43;;;;;;;;;;;;;;;6.45;77.80;100176.88;5051030;28;20011;-62
2021/12/12 08:36:10;;;;;;;;;;;;;;;6.47;77.39;100182.06;5052509;28;19990;-62
2021/12/12 08:38:37;;;;;;;;;;;;;;;6.50;77.61;100177.56;5051243;28;20334;-63
2021/12/12 08:41:05;;;;;;;;;;;;;;;6.54;77.57;100188.78;5051120;28;19917;-63
2021/12/12 08:43:33;;;;;;;;;;;;;;;6.57;77.28;100193.03;5052412;28;19935;-62
2021/12/12 08:46:03;;;;;;;;;;;;;;;6.57;77.24;100191.28;5050961;28;20266;-62
2021/12/12 08:48:31;;;;;;;;;;;;;;;6.61;77.30;100190.28;5051491;28;19920;-63
2021/12/12 08:50:59;;;;;;;;;;;;;;;6.64;77.56;100186.72;5050857;28;19921;-62
2021/12/12 08:53:26;;;;;;;;;;;;;;;6.65;77.17;100202.34;5051029;28;20353;-62
2021/12/12 08:55:55;;;;;;;;;;;;;;;6.67;77.51;100185.75;5052456;28;19925;-63
2021/12/12 08:58:23;;;;;;;;;;;;;;;6.71;77.31;100189.97;5052448;28;19925;-63
2021/12/12 09:00:52;;;;;;;;;;;;;;;6.74;77.61;100189.88;5050731;28;19966;-62
2021/12/12 09:03:39;;;;;;;;;;;;;;;6.77;77.17;100181.94;5052029;28;19921;-63
2021/12/12 09:06:07;;;;;;;;;;;;;;;6.77;77.46;100189.78;5052202;28;20284;-62
2021/12/12 09:08:40;;;;;;;;;;;;;;;6.79;77.31;100201.03;5052012;28;19924;-62
2021/12/12 09:11:11;;;;;;;;;;;;;;;6.82;77.44;100197.47;5051549;28;19927;-63
2021/12/12 09:13:42;;;;;;;;;;;;;;;6.84;77.79;100201.72;5052198;28;19921;-62
2021/12/12 09:16:12;;;;;;;;;;;;;;;6.85;77.45;100193.00;5051136;28;19925;-64
2021/12/12 09:18:52;;;;;;;;;;;;;;;6.90;77.82;100201.53;5050599;28;19925;-62
2021/12/12 09:21:25;;;;;;;;;;;;;;;6.91;77.83;100204.97;5051388;28;20607;-62
2021/12/12 09:24:05;;;;;;;;;;;;;;;6.93;78.14;100205.81;5050575;28;19936;-63
2021/12/12 09:26:34;;;;;;;;;;;;;;;6.97;77.99;100207.41;5050414;28;19978;-62
2021/12/12 09:29:03;;;;;;;;;;;;;;;7.00;77.62;100206.44;5049901;28;19949;-64
2021/12/12 09:31:33;;;;;;;;;;;;;;;7.04;77.80;100208.88;5051463;28;19921;-63
2021/12/12 09:34:22;;;;;;;;;;;;;;;7.08;78.07;100198.31;5050428;28;19924;-62
2021/12/12 09:37:17;;;;;;;;;;;;;;;7.12;78.16;100203.41;5050385;28;19967;-63
2021/12/12 09:39:52;;;;;;;;;;;;;;;7.14;78.12;100204.19;5050246;28;20243;-61
2021/12/12 09:42:19;;;;;;;;;;;;;;;7.20;77.86;100221.44;5050820;28;19920;-64
2021/12/12 09:45:04;;;;;;;;;;;;;;;7.22;77.80;100224.84;5051147;28;19920;-62
2021/12/12 09:47:59;;;;;;;;;;;;;;;7.27;77.99;100214.22;5050092;28;19928;-62
2021/12/12 09:51:16;;;;;;;;;;;;;;;7.28;77.93;100214.16;5049810;28;19925;-62
2021/12/12 09:53:43;;;;;;;;;;;;;;;7.30;78.03;100220.19;5058284;28;20349;-62
2021/12/12 09:56:23;;;;;;;;;;;;;;;7.35;78.00;100216.56;5051030;28;19920;-62
2021/12/12 09:58:55;;;;;;;;;;;;;;;7.38;77.73;100226.94;5049649;28;19921;-62
2021/12/12 10:01:26;;;;;;;;;;;;;;;7.39;77.66;100224.25;5050776;28;19925;-65
2021/12/12 10:04:08;;;;;;;;;;;;;;;7.43;77.87;100225.00;5051038;28;19924;-64
2021/12/12 10:06:44;;;;;;;;;;;;;;;7.47;77.62;100225.75;5066659;28;19924;-62
2021/12/12 10:09:14;;;;;;;;;;;;;;;7.48;77.90;100225.66;5049904;28;19920;-64
2021/12/12 10:11:59;;;;;;;;;;;;;;;7.51;78.02;100233.44;5049471;28;19970;-63
2021/12/12 10:14:32;;;;;;;;;;;;;;;7.55;77.95;100218.44;5050467;28;19921;-62
2021/12/12 10:17:01;;;;;;;;;;;;;;;7.58;77.72;100223.56;5051045;28;19925;-64
2021/12/12 10:19:40;;;;;;;;;;;;;;;7.60;77.74;100221.78;5049591;28;19931;-63
2021/12/12 10:22:25;;;;;;;;;;;;;;;7.64;77.91;100226.00;5051254;28;19974;-64
2021/12/12 10:24:55;;;;;;;;;;;;;;;7.67;77.85;100223.22;5049311;28;19935;-63
2021/12/12 10:27:30;;;;;;;;;;;;;;;7.69;77.61;100220.56;5054150;28;19924;-62
2021/12/12 10:30:08;;;;;;;;;;;;;;;7.72;77.68;100228.31;5054597;28;19928;-63
2021/12/12 10:32:40;;;;;;;;;;;;;;;7.73;77.85;100213.47;5054646;28;19921;-63
2021/12/12 10:35:10;;;;;;;;;;;;;;;7.77;78.03;100220.25;5053610;28;19920;-62
2021/12/12 10:37:56;;;;;;;;;;;;;;;7.80;77.94;100217.53;5053700;28;19928;-62
2021/12/12 10:40:29;;;;;;;;;;;;;;;7.85;77.89;100212.13;5053395;28;19917;-62
2021/12/12 10:43:02;;;;;;;;;;;;;;;7.86;77.75;100219.94;5053294;28;20414;-65
2021/12/12 10:45:32;;;;;;;;;;;;;;;7.90;77.67;100220.66;5055035;28;19924;-63
2021/12/12 10:47:58;;;;;;;;;;;;;;;7.93;77.70;100223.19;5053557;28;19921;-63
2021/12/12 10:50:37;;;;;;;;;;;;;;;7.93;77.70;100220.56;5054323;28;19931;-63
2021/12/12 10:53:22;;;;;;;;;;;;;;;7.98;77.83;100212.50;5054322;28;19974;-62
2021/12/12 10:55:56;;;;;;;;;;;;;;;7.99;77.41;100216.84;5053970;28;20735;-62
2021/12/12 10:58:49;;;;;;;;;;;;;;;8.02;77.65;100221.94;5054344;28;19921;-62
2021/12/12 11:01:22;;;;;;;;;;;;;;;8.03;77.70;100210.53;5052518;28;20418;-69
2021/12/12 11:04:08;;;;;;;;;;;;;;;8.06;77.50;100219.16;5052802;28;19920;-62
2021/12/12 11:06:36;;;;;;;;;;;;;;;8.09;77.47;100212.94;5054085;28;19924;-64
2021/12/12 11:09:15;;;;;;;;;;;;;;;8.12;77.56;100211.97;5054202;28;19982;-62
2021/12/12 11:11:44;;;;;;;;;;;;;;;8.12;77.47;100206.72;5054200;28;20352;-63
2021/12/12 11:14:14;;;;;;;;;;;;;;;8.15;77.56;100209.22;5053829;28;20427;-63
2021/12/12 11:16:40;;;;;;;;;;;;;;;8.18;77.58;100206.47;5053793;28;19924;-63
2021/12/12 11:19:30;;;;;;;;;;;;;;;8.21;77.51;100219.47;5053475;28;19924;-64
2021/12/12 11:22:05;;;;;;;;;;;;;;;8.24;77.58;100223.72;5055911;28;19966;-63
2021/12/12 11:24:35;;;;;;;;;;;;;;;8.26;77.42;100219.28;5052728;28;20448;-63
2021/12/12 11:27:05;;;;;;;;;;;;;;;8.29;77.61;100224.38;5053478;28;19920;-62
2021/12/12 11:29:36;;;;;;;;;;;;;;;8.29;77.66;100209.53;5052328;28;19928;-62
2021/12/12 11:32:13;;;;;;;;;;;;;;;8.33;77.48;100215.47;5053871;28;20414;-62
2021/12/12 11:34:45;;;;;;;;;;;;;;;8.35;77.40;100208.44;5053624;28;19931;-63
2021/12/12 11:37:31;;;;;;;;;;;;;;;8.37;77.57;100203.97;5052918;28;20384;-62
2021/12/12 11:40:06;;;;;;;;;;;;;;;8.40;77.42;100209.09;5053397;28;19920;-63
2021/12/12 11:42:48;;;;;;;;;;;;;;;8.42;77.26;100209.03;5051966;28;19932;-62
2021/12/12 11:45:18;;;;;;;;;;;;;;;8.42;77.30;100204.66;5052208;28;20359;-63
2021/12/12 11:47:57;;;;;;;;;;;;;;;8.46;77.63;100216.69;5053076;28;19947;-64
2021/12/12 11:50:46;;;;;;;;;;;;;;;8.48;77.56;100214.88;5052834;28;19924;-62
2021/12/12 11:53:19;;;;;;;;;;;;;;;8.48;77.63;100216.63;5052255;28;19929;-62
2021/12/12 11:55:52;;;;;;;;;;;;;;;8.51;77.61;100218.28;5051857;28;20388;-66
2021/12/12 11:58:18;;;;;;;;;;;;;;;8.53;77.64;100213.88;5068496;28;19922;-62
2021/12/12 12:00:49;;;;;;;;;;;;;;;8.53;77.62;100212.13;5053023;28;19939;-62
2021/12/12 12:03:21;;;;;;;;;;;;;;;8.57;77.57;100210.19;5053339;28;20015;-62
2021/12/12 12:06:17;;;;;;;;;;;;;;;8.58;77.72;100214.53;5052922;28;19920;-63
2021/12/12 12:09:07;;;;;;;;;;;;;;;8.61;77.36;100214.41;5056129;28;19932;-63
2021/12/12 12:11:42;;;;;;;;;;;;;;;8.63;77.57;100217.81;5054650;28;20369;-64
2021/12/12 12:14:31;;;;;;;;;;;;;;;8.65;77.83;100208.13;5052948;28;19920;-62
2021/12/12 12:17:01;;;;;;;;;;;;;;;8.69;77.61;100211.44;5052532;28;19921;-63
2021/12/12 12:19:42;;;;;;;;;;;;;;;8.70;77.75;100206.16;5052503;28;19967;-63
2021/12/12 12:22:09;;;;;;;;;;;;;;;8.72;77.80;100203.47;5052437;28;19963;-62
2021/12/12 12:24:55;;;;;;;;;;;;;;;8.73;77.71;100206.03;5052685;28;19925;-64
2021/12/12 12:27:30;;;;;;;;;;;;;;;8.77;77.67;100203.25;5052624;28;19928;-63
2021/12/12 12:30:07;;;;;;;;;;;;;;;8.80;77.59;100214.50;5050879;28;19924;-63
2021/12/12 12:33:05;;;;;;;;;;;;;;;8.80;77.34;100213.63;5052344;28;19928;-62
2021/12/12 12:35:33;;;;;;;;;;;;;;;8.83;77.48;100213.50;5061768;28;19920;-64
2021/12/12 12:38:18;;;;;;;;;;;;;;;8.85;77.48;100223.03;5052304;28;19924;-63
2021/12/12 12:40:45;;;;;;;;;;;;;;;8.85;77.53;100227.41;5052252;28;19990;-63
2021/12/12 12:43:30;;;;;;;;;;;;;;;8.88;77.75;100226.41;5052215;28;19925;-63
2021/12/12 12:46:15;;;;;;;;;;;;;;;8.90;77.62;100222.81;5052220;28;19990;-63
2021/12/12 12:49:00;;;;;;;;;;;;;;;8.92;77.58;100233.25;5051954;28;20054;-62
2021/12/12 12:51:35;;;;;;;;;;;;;;;8.95;77.57;100225.25;5052198;28;20292;-63
2021/12/12 12:54:14;;;;;;;;;;;;;;;8.96;77.78;100229.56;5052282;28;19974;-63
2021/12/12 12:56:56;;;;;;;;;;;;;;;8.96;77.45;100227.81;5052087;28;19924;-64
2021/12/12 12:59:25;;;;;;;;;;;;;;;8.99;77.68;100225.06;5052103;28;19925;-63
2021/12/12 13:01:59;;;;;;;;;;;;;;;9.02;77.67;100223.22;5051977;28;19929;-62
2021/12/12 13:04:32;;;;;;;;;;;;;;;9.02;77.66;100213.56;5052024;28;19928;-64
2021/12/12 13:07:08;;;;;;;;;;;;;;;9.04;77.88;100216.13;5051884;28;19920;-62
2021/12/12 13:09:48;;;;;;;;;;;;;;;9.04;77.81;100226.66;5051387;28;19928;-63
2021/12/12 13:12:28;;;;;;;;;;;;;;;9.03;77.80;100214.41;5051831;28;19921;-62
2021/12/12 13:14:58;;;;;;;;;;;;;;;9.07;77.90;100218.59;5051413;28;19921;-63
2021/12/12 13:17:24;;;;;;;;;;;;;;;9.06;77.87;100215.16;5050402;28;19921;-63
2021/12/12 13:19:57;;;;;;;;;;;;;;;9.10;78.07;100218.50;5051292;28;20353;-62
2021/12/12 13:22:33;;;;;;;;;;;;;;;9.11;78.18;100217.56;5051366;28;20392;-62
2021/12/12 13:25:06;;;;;;;;;;;;;;;9.15;78.15;100219.13;5050219;28;19920;-62
2021/12/12 13:27:39;;;;;;;;;;;;;;;9.18;77.98;100231.28;5050248;28;19929;-64